Time;durP1;ratioP1;P1;durP2;ratioP2;P2;SDS_P1;SDS_P2;PMS_P1;PMS_P2;Temp;Humidity;BMP_temperature;BMP_pressure;BME280_temperature;BME280_humidity;BME280_pressure;Samples;Min_cycle;Max_cycle;Signal;HPM_P1;HPM_P2
2022/12/20 00:00:26;;;;;;;5.05;1.80;;;9.60;99.90;;;;;;5035026;28;20036;-69
2022/12/20 00:02:51;;;;;;;3.65;1.92;;;9.50;99.90;;;;;;5034953;28;20499;-68
2022/12/20 00:05:17;;;;;;;3.30;1.73;;;9.50;99.90;;;;;;5052667;28;20488;-68
2022/12/20 00:07:42;;;;;;;2.92;1.90;;;9.50;99.90;;;;;;5052727;28;20052;-68
2022/12/20 00:10:08;;;;;;;2.38;1.58;;;9.50;99.90;;;;;;5018386;28;20040;-68
2022/12/20 00:12:34;;;;;;;4.13;1.88;;;9.60;99.90;;;;;;5052666;28;20055;-68
2022/12/20 00:14:59;;;;;;;15.20;2.03;;;9.60;99.90;;;;;;5052991;28;20040;-69
2022/12/20 00:17:25;;;;;;;3.75;1.95;;;9.60;99.90;;;;;;5052881;28;20120;-68
2022/12/20 00:19:50;;;;;;;2.35;1.40;;;9.60;99.90;;;;;;5035004;28;20507;-68
2022/12/20 00:22:16;;;;;;;2.83;1.90;;;9.50;99.90;;;;;;5054478;28;20087;-68
2022/12/20 00:24:41;;;;;;;4.80;2.08;;;9.50;99.90;;;;;;5056940;28;20040;-68
2022/12/20 00:27:07;;;;;;;1.67;1.30;;;9.60;99.90;;;;;;5056903;28;20037;-68
2022/12/20 00:29:32;;;;;;;3.78;1.98;;;9.50;99.90;;;;;;5056640;28;20137;-69
2022/12/20 00:31:58;;;;;;;4.43;1.95;;;9.60;99.90;;;;;;5056828;28;20037;-68
2022/12/20 00:34:24;;;;;;;4.65;2.00;;;9.70;99.90;;;;;;5056748;28;20068;-68
2022/12/20 00:36:49;;;;;;;6.38;2.40;;;9.70;99.90;;;;;;5056712;28;20084;-68
2022/12/20 00:39:15;;;;;;;0.77;0.60;;;9.80;99.90;;;;;;5056594;28;20058;-68
2022/12/20 00:41:40;;;;;;;2.60;1.60;;;9.90;99.90;;;;;;5038536;28;20044;-68
2022/12/20 00:44:06;;;;;;;2.58;1.48;;;10.00;99.90;;;;;;5038713;28;20051;-68
2022/12/20 00:46:33;;;;;;;4.85;2.25;;;10.00;99.90;;;;;;5056543;28;20045;-69
2022/12/20 00:48:59;;;;;;;3.95;1.70;;;10.00;99.90;;;;;;5056212;28;20045;-69
2022/12/20 00:51:27;;;;;;;3.47;2.10;;;10.00;99.90;;;;;;5056491;28;20082;-68
2022/12/20 00:53:53;;;;;;;2.53;1.33;;;10.00;99.90;;;;;;5038541;28;20396;-70
2022/12/20 00:56:19;;;;;;;3.65;1.75;;;10.10;99.90;;;;;;5038430;28;20041;-68
2022/12/20 00:58:44;;;;;;;3.38;1.70;;;10.10;99.90;;;;;;5056155;28;20037;-68
2022/12/20 01:01:18;;;;;;;2.85;1.85;;;10.10;99.90;;;;;;5038375;28;20049;-68
2022/12/20 01:03:44;;;;;;;2.10;1.50;;;10.00;99.90;;;;;;5056169;28;20123;-69
2022/12/20 01:06:10;;;;;;;2.63;1.13;;;10.00;99.90;;;;;;5037950;28;20103;-67
2022/12/20 01:08:36;;;;;;;3.13;1.42;;;10.00;99.90;;;;;;5056150;28;20147;-69
2022/12/20 01:11:12;;;;;;;3.13;1.33;;;10.00;99.90;;;;;;5055807;28;20408;-68
2022/12/20 01:13:40;;;;;;;3.10;1.40;;;10.00;99.90;;;;;;5055676;28;20041;-69
2022/12/20 01:16:12;;;;;;;4.35;2.00;;;10.10;99.90;;;;;;5056011;28;20041;-68
2022/12/20 01:18:38;;;;;;;5.03;1.90;;;10.10;99.90;;;;;;5055598;28;20041;-68
2022/12/20 01:21:07;;;;;;;2.35;1.60;;;10.00;99.90;;;;;;5055885;28;20049;-68
2022/12/20 01:23:33;;;;;;;1.92;1.35;;;10.00;99.90;;;;;;5055814;28;20108;-68
2022/12/20 01:26:03;;;;;;;2.58;1.40;;;10.00;99.90;;;;;;5055768;28;20079;-68
2022/12/20 01:28:31;;;;;;;2.10;1.33;;;10.00;99.90;;;;;;5055800;28;20086;-68
2022/12/20 01:30:56;;;;;;;2.33;1.80;;;10.00;99.90;;;;;;5055720;28;20174;-68
2022/12/20 01:33:22;;;;;;;3.40;1.58;;;10.00;99.90;;;;;;5036293;28;20053;-68
2022/12/20 01:35:59;;;;;;;3.25;1.70;;;10.10;99.90;;;;;;5055325;28;20120;-68
2022/12/20 01:38:25;;;;;;;4.43;1.10;;;10.00;99.90;;;;;;5055506;28;20053;-68
2022/12/20 01:40:51;;;;;;;2.60;1.58;;;10.00;99.90;;;;;;5055505;28;20472;-68
2022/12/20 01:43:18;;;;;;;2.78;1.52;;;10.00;99.90;;;;;;5055519;28;20120;-68
2022/12/20 01:45:44;;;;;;;4.75;1.50;;;10.30;99.90;;;;;;5055436;28;20122;-69
2022/12/20 01:48:11;;;;;;;2.92;1.33;;;10.00;99.90;;;;;;5055398;28;20036;-69
2022/12/20 01:50:37;;;;;;;3.28;1.50;;;10.00;99.90;;;;;;5055192;28;20056;-68
2022/12/20 01:53:04;;;;;;;3.08;1.52;;;10.10;99.90;;;;;;5055244;28;20068;-68
2022/12/20 01:55:30;;;;;;;3.00;1.55;;;10.10;99.90;;;;;;5055241;28;20041;-68
2022/12/20 01:58:03;;;;;;;3.33;1.30;;;10.00;99.90;;;;;;5055158;28;20073;-68
2022/12/20 02:00:29;;;;;;;1.98;1.30;;;10.00;99.90;;;;;;5055168;28;20388;-69
2022/12/20 02:02:59;;;;;;;1.90;1.33;;;10.00;99.90;;;;;;5037440;28;20040;-68
2022/12/20 02:05:25;;;;;;;4.30;1.52;;;10.00;99.90;;;;;;5054675;28;20055;-69
2022/12/20 02:07:53;;;;;;;3.35;1.67;;;10.00;99.90;;;;;;5054958;28;20044;-68
2022/12/20 02:10:22;;;;;;;2.22;1.27;;;10.00;99.90;;;;;;5054991;28;20120;-68
2022/12/20 02:12:50;;;;;;;1.42;1.15;;;10.00;99.90;;;;;;5037099;28;20116;-68
2022/12/20 02:15:37;;;;;;;3.00;1.25;;;9.90;99.90;;;;;;5037019;28;20515;-68
2022/12/20 02:18:11;;;;;;;4.32;1.50;;;10.00;99.90;;;;;;5054786;28;20377;-68
2022/12/20 02:20:45;;;;;;;4.10;1.77;;;10.00;99.90;;;;;;5054716;28;20037;-68
2022/12/20 02:23:55;;;;;;;6.70;1.70;;;10.00;99.90;;;;;;5054794;28;20396;-68
2022/12/20 02:26:58;;;;;;;1.98;1.30;;;10.00;99.90;;;;;;5036579;28;20064;-69
2022/12/20 02:29:38;;;;;;;1.42;1.10;;;10.00;99.90;;;;;;5036831;28;20056;-68
2022/12/20 02:32:11;;;;;;;2.23;1.43;;;10.00;99.90;;;;;;5036805;28;20045;-69
2022/12/20 02:34:40;;;;;;;2.90;1.42;;;10.10;99.90;;;;;;5054493;28;20037;-68
2022/12/20 02:37:05;;;;;;;1.92;1.13;;;11.90;99.90;;;;;;5036396;28;20041;-67
2022/12/20 02:39:33;;;;;;;2.38;1.38;;;10.00;99.90;;;;;;5054334;28;20039;-68
2022/12/20 02:42:22;;;;;;;2.45;1.58;;;10.10;99.90;;;;;;5054396;28;20427;-68
2022/12/20 02:47:54;;;;;;;2.35;1.55;;;10.10;99.90;;;;;;5054262;28;20037;-68
2022/12/20 02:50:25;;;;;;;4.07;1.73;;;10.20;99.90;;;;;;5019968;28;20033;-68
2022/12/20 02:52:52;;;;;;;;;;;10.20;99.90;;;;;;5036431;28;20072;-69
2022/12/20 02:55:23;;;;;;;1.08;0.88;;;10.20;99.90;;;;;;5053799;28;19932;-68
2022/12/20 02:58:04;;;;;;;1.45;1.23;;;10.10;99.90;;;;;;5053952;28;20406;-69
2022/12/20 03:00:37;;;;;;;3.30;1.37;;;10.10;99.90;;;;;;5054046;28;20048;-68
2022/12/20 03:03:22;;;;;;;1.85;1.23;;;10.10;99.90;;;;;;5053697;28;20279;-68
2022/12/20 03:05:49;;;;;;;3.42;1.48;;;10.00;99.90;;;;;;5035611;28;20060;-70
2022/12/20 03:08:16;;;;;;;3.63;1.70;;;9.90;99.90;;;;;;5053538;28;20063;-70
2022/12/20 03:10:42;;;;;;;1.20;1.10;;;10.00;99.90;;;;;;5053805;28;20404;-69
2022/12/20 03:13:07;;;;;;;2.00;1.25;;;9.70;99.90;;;;;;5053777;28;20045;-70
2022/12/20 03:15:33;;;;;;;2.92;1.40;;;9.60;99.90;;;;;;5053426;28;20106;-71
2022/12/20 03:17:58;;;;;;;4.88;2.13;;;9.60;99.90;;;;;;5053625;28;20037;-71
2022/12/20 03:20:24;;;;;;;1.67;1.30;;;9.50;99.90;;;;;;5035474;28;20075;-72
2022/12/20 03:22:49;;;;;;;2.83;1.27;;;9.50;99.90;;;;;;5035730;28;20052;-70
2022/12/20 03:25:15;;;;;;;4.63;1.58;;;9.50;99.90;;;;;;5053584;28;20036;-71
2022/12/20 03:27:41;;;;;;;3.67;1.27;;;9.50;99.90;;;;;;5053265;28;20044;-70
2022/12/20 03:30:07;;;;;;;3.83;2.05;;;9.40;99.90;;;;;;5035395;28;20534;-70
2022/12/20 03:32:32;;;;;;;3.13;1.50;;;9.40;99.90;;;;;;5053200;28;20047;-73
2022/12/20 03:34:58;;;;;;;4.07;1.70;;;9.40;99.90;;;;;;5053178;28;20040;-72
2022/12/20 03:37:24;;;;;;;3.38;1.85;;;9.40;99.90;;;;;;5035153;28;20137;-71
2022/12/20 03:39:49;;;;;;;2.75;1.42;;;9.40;99.90;;;;;;5052977;28;20072;-71
2022/12/20 03:42:15;;;;;;;2.47;1.45;;;9.40;99.90;;;;;;5053093;28;20037;-70
2022/12/20 03:44:41;;;;;;;2.45;1.65;;;9.40;99.90;;;;;;5053292;28;20041;-70
2022/12/20 03:47:06;;;;;;;2.83;1.55;;;9.40;99.90;;;;;;5053012;28;20040;-71
2022/12/20 03:49:32;;;;;;;2.17;1.45;;;9.40;99.90;;;;;;5035198;28;20051;-71
2022/12/20 03:51:57;;;;;;;1.55;1.33;;;9.40;99.90;;;;;;5053148;28;20105;-71
2022/12/20 03:54:23;;;;;;;1.95;1.23;;;9.40;99.90;;;;;;5052848;28;20041;-72
2022/12/20 03:56:48;;;;;;;2.25;1.48;;;9.40;99.90;;;;;;5052210;28;20041;-70
2022/12/20 03:59:15;;;;;;;4.07;1.60;;;9.30;99.90;;;;;;5053065;28;20120;-72
2022/12/20 04:01:41;;;;;;;2.20;1.45;;;9.30;99.90;;;;;;5053113;28;20083;-70
2022/12/20 04:04:08;;;;;;;3.05;1.65;;;9.40;99.90;;;;;;5053059;28;20072;-70
2022/12/20 04:06:34;;;;;;;3.22;1.95;;;9.30;99.90;;;;;;5018277;28;20057;-69
2022/12/20 04:08:59;;;;;;;3.22;1.42;;;9.40;99.90;;;;;;5053054;28;20169;-70
2022/12/20 04:11:25;;;;;;;3.35;1.95;;;9.40;99.90;;;;;;5052693;28;20047;-71
2022/12/20 04:13:53;;;;;;;2.05;1.40;;;9.30;99.90;;;;;;5052959;28;20087;-70
2022/12/20 04:16:21;;;;;;;3.85;1.50;;;9.40;99.90;;;;;;5052616;28;20041;-70
2022/12/20 04:18:47;;;;;;;2.88;1.70;;;9.40;99.90;;;;;;5052544;28;20048;-71
2022/12/20 04:21:14;;;;;;;2.88;1.90;;;9.40;99.90;;;;;;5034841;28;20037;-71
2022/12/20 04:23:41;;;;;;;2.67;1.83;;;9.50;99.90;;;;;;5052596;28;20045;-70
2022/12/20 04:26:07;;;;;;;2.03;1.42;;;9.50;99.90;;;;;;5052595;28;20037;-70
2022/12/20 04:28:34;;;;;;;2.55;1.73;;;9.50;99.90;;;;;;5034695;28;20045;-69
2022/12/20 04:31:00;;;;;;;4.50;2.28;;;9.60;99.90;;;;;;5034696;28;20041;-70
2022/12/20 04:33:26;;;;;;;3.92;1.67;;;9.60;99.90;;;;;;5052505;28;20400;-70
2022/12/20 04:35:52;;;;;;;2.30;1.35;;;9.50;99.90;;;;;;5052798;28;20036;-70
2022/12/20 04:38:20;;;;;;;2.85;2.05;;;9.50;99.90;;;;;;5052681;28;20120;-70
2022/12/20 04:40:48;;;;;;;3.25;2.00;;;9.60;99.90;;;;;;5034567;28;20048;-70
2022/12/20 04:43:14;;;;;;;1.48;1.10;;;9.60;99.90;;;;;;5052404;28;20048;-70
2022/12/20 04:45:40;;;;;;;4.45;1.60;;;9.60;99.90;;;;;;5052410;28;20045;-70
2022/12/20 04:48:05;;;;;;;3.35;1.75;;;9.60;99.90;;;;;;5034830;28;20120;-69
2022/12/20 04:50:31;;;;;;;2.55;1.50;;;9.70;99.90;;;;;;5052900;28;20043;-69
2022/12/20 04:55:40;;;;;;;2.35;1.48;;;9.60;99.90;;;;;;5052267;28;20127;-70
2022/12/20 04:58:07;;;;;;;2.80;1.33;;;9.60;99.90;;;;;;5052153;28;20124;-70
2022/12/20 05:00:33;;;;;;;3.60;2.20;;;9.60;99.90;;;;;;5034713;28;20480;-70
2022/12/20 05:02:59;;;;;;;2.90;1.52;;;9.60;99.90;;;;;;5052212;28;20120;-70
2022/12/20 05:05:25;;;;;;;2.83;1.77;;;9.70;99.90;;;;;;5034179;28;20412;-70
2022/12/20 05:07:52;;;;;;;4.93;1.92;;;9.70;99.90;;;;;;5035446;28;20051;-69
2022/12/20 05:10:17;;;;;;;5.93;1.85;;;9.70;99.90;;;;;;5038028;28;20403;-70
2022/12/20 05:12:43;;;;;;;4.47;1.80;;;9.70;99.90;;;;;;5038315;28;20044;-71
2022/12/20 05:15:10;;;;;;;1.80;1.48;;;9.70;99.90;;;;;;5037901;28;20087;-70
2022/12/20 05:17:35;;;;;;;4.22;2.10;;;9.80;99.90;;;;;;5055833;28;20048;-71
2022/12/20 05:20:01;;;;;;;3.03;1.70;;;9.80;99.90;;;;;;5055958;28;20033;-69
2022/12/20 05:27:55;;;;;;;2.15;1.40;;;9.90;99.90;;;;;;5055454;28;20044;-69
2022/12/20 05:30:21;;;;;;;4.22;1.35;;;9.90;99.90;;;;;;5055427;28;20037;-69
2022/12/20 05:32:47;;;;;;;2.75;1.25;;;10.00;99.90;;;;;;5037953;28;20041;-69
2022/12/20 05:35:13;;;;;;;2.25;1.85;;;10.00;99.90;;;;;;5055698;28;20124;-69
2022/12/20 05:37:39;;;;;;;3.15;1.65;;;10.00;99.90;;;;;;5055587;28;20111;-69
2022/12/20 05:40:05;;;;;;;3.03;1.55;;;10.00;99.90;;;;;;5037519;28;20112;-70
2022/12/20 05:42:31;;;;;;;4.40;1.30;;;10.00;99.90;;;;;;5037521;28;20155;-70
2022/12/20 05:44:56;;;;;;;1.77;1.45;;;10.10;99.90;;;;;;5055540;28;20479;-69
2022/12/20 05:47:22;;;;;;;5.75;1.58;;;10.10;99.90;;;;;;5037350;28;20047;-71
2022/12/20 05:49:47;;;;;;;2.45;1.77;;;10.10;99.90;;;;;;5055112;28;20083;-70
2022/12/20 05:52:13;;;;;;;2.55;1.45;;;10.00;99.90;;;;;;5037070;28;20106;-70
2022/12/20 05:54:39;;;;;;;1.88;1.48;;;10.10;99.90;;;;;;5037146;28;20045;-69
2022/12/20 05:57:04;;;;;;;7.47;1.95;;;10.10;99.90;;;;;;5055156;28;20037;-69
2022/12/20 05:59:30;;;;;;;3.67;1.65;;;10.10;99.90;;;;;;5054987;28;20045;-68
2022/12/20 06:01:55;;;;;;;2.35;1.50;;;10.10;99.90;;;;;;5055038;28;20044;-71
2022/12/20 06:04:21;;;;;;;3.08;1.63;;;10.10;99.90;;;;;;5036764;28;20485;-68
2022/12/20 06:06:46;;;;;;;3.08;1.38;;;10.10;99.90;;;;;;5036948;28;20045;-70
2022/12/20 06:09:12;;;;;;;2.10;1.50;;;10.10;99.90;;;;;;5054984;28;20546;-70
2022/12/20 06:11:37;;;;;;;1.10;0.82;;;10.10;99.90;;;;;;5036859;28;20534;-70
2022/12/20 06:14:03;;;;;;;2.38;1.48;;;10.10;99.90;;;;;;5054756;28;20532;-69
2022/12/20 06:16:29;;;;;;;2.90;1.83;;;10.10;99.90;;;;;;5054933;28;20084;-71
2022/12/20 06:18:55;;;;;;;2.92;1.52;;;10.10;99.90;;;;;;5036543;28;20436;-70
2022/12/20 06:21:21;;;;;;;2.47;1.73;;;10.20;99.90;;;;;;5054062;28;20064;-70
2022/12/20 06:23:47;;;;;;;2.95;1.42;;;10.20;99.90;;;;;;5054363;28;20075;-70
2022/12/20 06:26:13;;;;;;;2.08;1.45;;;10.20;99.90;;;;;;5054630;28;20040;-71
2022/12/20 06:28:41;;;;;;;2.47;1.48;;;10.20;99.90;;;;;;5054581;28;20060;-70
2022/12/20 06:31:08;;;;;;;2.97;1.20;;;10.20;99.90;;;;;;5036552;28;20079;-70
2022/12/20 06:33:33;;;;;;;2.63;1.48;;;10.20;99.90;;;;;;5054450;28;20094;-71
2022/12/20 06:35:59;;;;;;;2.58;1.67;;;10.30;99.90;;;;;;5054563;28;20048;-69
2022/12/20 06:38:25;;;;;;;3.00;1.65;;;10.30;99.90;;;;;;5036278;28;20041;-69
2022/12/20 06:40:50;;;;;;;3.05;1.50;;;10.30;99.90;;;;;;5054449;28;20124;-69
2022/12/20 06:43:16;;;;;;;2.60;1.73;;;10.20;99.90;;;;;;5054412;28;20037;-69
2022/12/20 06:45:41;;;;;;;2.00;1.35;;;10.20;99.90;;;;;;5054265;28;20469;-69
2022/12/20 06:48:07;;;;;;;1.70;1.17;;;10.40;99.90;;;;;;5054009;28;20052;-69
2022/12/20 06:50:33;;;;;;;1.58;1.27;;;10.40;99.90;;;;;;5054240;28;20041;-69
2022/12/20 06:52:58;;;;;;;4.50;2.10;;;10.40;99.90;;;;;;5054145;28;20495;-69
2022/12/20 06:55:24;;;;;;;4.43;1.63;;;10.30;99.90;;;;;;5054086;28;20143;-68
2022/12/20 06:57:50;;;;;;;2.92;1.42;;;10.20;99.90;;;;;;5054038;28;20123;-69
2022/12/20 07:00:16;;;;;;;3.42;1.83;;;10.20;99.90;;;;;;5054045;28;20435;-69
2022/12/20 07:02:41;;;;;;;3.08;1.83;;;10.10;99.90;;;;;;5036124;28;20468;-69
2022/12/20 07:05:07;;;;;;;2.65;1.70;;;10.10;99.90;;;;;;5053524;28;20048;-71
2022/12/20 07:07:33;;;;;;;1.92;1.35;;;10.00;99.90;;;;;;5053899;28;20166;-70
2022/12/20 07:09:58;;;;;;;4.05;1.92;;;10.00;99.90;;;;;;5053842;28;20443;-69
2022/12/20 07:12:24;;;;;;;2.28;1.58;;;9.90;99.90;;;;;;5053812;28;20490;-69
2022/12/20 07:14:50;;;;;;;4.10;1.98;;;9.90;99.90;;;;;;5035964;28;20503;-69
2022/12/20 07:17:16;;;;;;;3.70;1.58;;;10.00;99.90;;;;;;5053779;28;20029;-71
2022/12/20 07:19:42;;;;;;;3.13;1.63;;;10.00;99.90;;;;;;5053604;28;20048;-70
2022/12/20 07:22:07;;;;;;;3.40;1.80;;;10.00;99.90;;;;;;5053633;28;20496;-71
2022/12/20 07:24:33;;;;;;;8.70;1.90;;;9.90;99.90;;;;;;5035811;28;20049;-70
2022/12/20 07:26:59;;;;;;;1.60;1.45;;;9.90;99.90;;;;;;5035559;28;20037;-71
2022/12/20 07:29:25;;;;;;;2.50;1.52;;;9.90;99.90;;;;;;5053477;28;20047;-71
2022/12/20 07:31:51;;;;;;;2.95;2.08;;;9.90;99.90;;;;;;5034394;28;20427;-71
2022/12/20 07:34:17;;;;;;;2.10;1.60;;;10.00;99.90;;;;;;5035349;28;20514;-70
2022/12/20 07:36:43;;;;;;;3.38;1.88;;;9.90;99.90;;;;;;5053350;28;20037;-70
2022/12/20 07:39:09;;;;;;;2.83;1.50;;;9.90;99.90;;;;;;5053312;28;20087;-70
2022/12/20 07:41:35;;;;;;;3.00;1.98;;;9.90;99.90;;;;;;5053128;28;20064;-70
2022/12/20 07:44:00;;;;;;;4.18;2.15;;;9.90;99.90;;;;;;5053338;28;20067;-71
2022/12/20 07:46:26;;;;;;;3.20;1.60;;;9.90;99.90;;;;;;5053310;28;20041;-71
2022/12/20 07:48:52;;;;;;;3.72;2.08;;;9.90;99.90;;;;;;5035078;28;20041;-71
2022/12/20 07:51:23;;;;;;;9.40;1.88;;;9.90;99.90;;;;;;5053012;28;20043;-70
2022/12/20 07:53:57;;;;;;;;;;;10.00;99.90;;;;;;5053578;28;20037;-71
2022/12/20 07:56:24;;;;;;;2.78;1.95;;;9.90;99.90;;;;;;5018846;28;20012;-71
2022/12/20 07:58:52;;;;;;;2.28;1.55;;;9.90;99.90;;;;;;5053032;28;20096;-70
2022/12/20 08:01:20;;;;;;;2.45;1.42;;;9.90;99.90;;;;;;5035025;28;20080;-70
2022/12/20 08:03:51;;;;;;;3.70;2.00;;;9.80;99.90;;;;;;5052909;28;20033;-70
2022/12/20 08:06:17;;;;;;;3.00;1.55;;;9.90;99.90;;;;;;5052545;28;20056;-71
2022/12/20 08:08:47;;;;;;;5.80;1.70;;;9.90;99.90;;;;;;5052956;28;20041;-70
2022/12/20 08:11:14;;;;;;;5.68;2.28;;;9.90;99.90;;;;;;5034807;28;20045;-70
2022/12/20 08:13:40;;;;;;;4.20;2.05;;;9.90;99.90;;;;;;5034955;28;20049;-70
2022/12/20 08:16:06;;;;;;;2.33;1.65;;;9.90;99.90;;;;;;5052852;28;20423;-71
2022/12/20 08:18:32;;;;;;;2.67;1.80;;;9.90;99.90;;;;;;5052713;28;20048;-70
2022/12/20 08:20:57;;;;;;;3.58;2.22;;;9.90;99.90;;;;;;5034580;28;20041;-71
2022/12/20 08:23:23;;;;;;;4.07;2.20;;;9.90;99.90;;;;;;5034679;28;20045;-71
2022/12/20 08:25:49;;;;;;;2.67;1.70;;;10.10;99.90;;;;;;5052738;28;20055;-70
2022/12/20 08:28:15;;;;;;;2.35;1.88;;;10.00;99.90;;;;;;5052694;28;20037;-70
2022/12/20 08:30:40;;;;;;;4.20;2.00;;;10.00;99.90;;;;;;5018359;28;20045;-70
2022/12/20 08:33:06;;;;;;;4.63;1.75;;;10.00;99.90;;;;;;5052393;28;20059;-70
2022/12/20 08:35:32;;;;;;;3.50;2.17;;;10.00;99.90;;;;;;5034856;28;20045;-71
2022/12/20 08:37:58;;;;;;;3.95;2.20;;;10.10;99.90;;;;;;5052681;28;20435;-71
2022/12/20 08:40:23;;;;;;;3.72;1.08;;;10.10;99.90;;;;;;5034534;28;20124;-72
2022/12/20 08:42:49;;;;;;;6.38;1.92;;;10.10;99.90;;;;;;5053527;28;20029;-70
2022/12/20 08:45:14;;;;;;;3.10;1.42;;;10.20;99.90;;;;;;5056616;28;20037;-71
2022/12/20 08:47:40;;;;;;;2.70;1.83;;;10.20;99.90;;;;;;5038424;28;20044;-70
2022/12/20 08:50:06;;;;;;;3.42;1.70;;;10.20;99.90;;;;;;5038366;28;20077;-70
2022/12/20 08:52:32;;;;;;;5.22;1.88;;;10.10;99.90;;;;;;5056419;28;20047;-70
2022/12/20 08:54:57;;;;;;;2.90;1.77;;;10.10;99.90;;;;;;5038630;28;20120;-71
2022/12/20 08:57:23;;;;;;;3.47;1.85;;;10.10;99.90;;;;;;5056128;28;20051;-71
2022/12/20 08:59:48;;;;;;;1.27;1.05;;;10.20;99.90;;;;;;5056327;28;20033;-70
2022/12/20 09:02:14;;;;;;;1.83;1.42;;;10.20;99.90;;;;;;5056048;28;20040;-70
2022/12/20 09:04:40;;;;;;;2.05;1.65;;;10.10;99.90;;;;;;5037949;28;20057;-70
2022/12/20 09:07:05;;;;;;;5.30;1.98;;;10.10;99.90;;;;;;5038485;28;20045;-70
2022/12/20 09:09:31;;;;;;;2.85;1.67;;;10.20;99.90;;;;;;5038071;28;20044;-70
2022/12/20 09:11:57;;;;;;;3.10;1.75;;;10.10;99.90;;;;;;5038267;28;20400;-70
2022/12/20 09:14:23;;;;;;;2.85;1.50;;;10.10;99.90;;;;;;5056126;28;20048;-70
2022/12/20 09:16:48;;;;;;;2.17;1.55;;;10.10;99.90;;;;;;5037855;28;20045;-70
2022/12/20 09:19:14;;;;;;;2.88;1.80;;;10.10;99.90;;;;;;5037713;28;20045;-70
2022/12/20 09:21:40;;;;;;;2.75;1.60;;;10.10;99.90;;;;;;5055709;28;20155;-70
2022/12/20 09:24:06;;;;;;;2.22;1.73;;;10.20;99.90;;;;;;5055931;28;20037;-70
2022/12/20 09:26:34;;;;;;;2.85;1.60;;;10.20;99.90;;;;;;5055771;28;20052;-70
2022/12/20 09:29:00;;;;;;;2.33;1.35;;;10.30;99.90;;;;;;5037957;28;20045;-70
2022/12/20 09:31:26;;;;;;;1.70;1.30;;;10.30;99.90;;;;;;5037994;28;20423;-69
2022/12/20 09:33:53;;;;;;;1.65;1.17;;;10.30;99.90;;;;;;5055783;28;20523;-71
2022/12/20 09:36:21;;;;;;;4.72;1.42;;;10.30;99.90;;;;;;5037584;28;20121;-70
2022/12/20 09:38:47;;;;;;;2.45;1.45;;;10.40;99.90;;;;;;5055499;28;20087;-70
2022/12/20 09:41:23;;;;;;;3.22;1.67;;;10.40;99.90;;;;;;5037414;28;20243;-71
2022/12/20 09:43:49;;;;;;;2.72;1.65;;;10.40;99.90;;;;;;5037438;28;20381;-70
2022/12/20 09:46:16;;;;;;;2.35;1.42;;;10.40;99.90;;;;;;5055493;28;20040;-70
2022/12/20 09:48:42;;;;;;;4.63;1.85;;;10.40;99.90;;;;;;5055456;28;20047;-70
2022/12/20 09:51:21;;;;;;;1.85;1.27;;;10.40;99.90;;;;;;5037552;28;20045;-71
2022/12/20 09:54:25;;;;;;;2.55;1.42;;;10.40;99.90;;;;;;5036811;28;20484;-70
2022/12/20 09:57:29;;;;;;;2.05;1.30;;;10.40;99.90;;;;;;5037362;28;20060;-70
2022/12/20 09:59:59;;;;;;;2.03;1.55;;;10.40;99.90;;;;;;5010608;28;20450;-70
2022/12/20 10:02:28;;;;;;;3.72;1.38;;;10.50;99.90;;;;;;5037328;28;20094;-71
2022/12/20 10:04:54;;;;;;;0.98;0.75;;;10.50;99.90;;;;;;5036729;28;20065;-71
2022/12/20 10:07:34;;;;;;;2.17;1.42;;;10.50;99.90;;;;;;5055163;28;20511;-70
2022/12/20 10:10:15;;;;;;;2.15;1.20;;;10.50;99.90;;;;;;5054725;28;20033;-72
2022/12/20 10:12:46;;;;;;;1.65;1.20;;;10.50;99.90;;;;;;5036881;28;20128;-70
2022/12/20 10:15:26;;;;;;;5.55;1.60;;;10.50;99.90;;;;;;5054698;28;20061;-71
2022/12/20 10:18:16;;;;;;;4.43;1.40;;;10.50;99.90;;;;;;5036648;28;20115;-70
2022/12/20 10:21:03;;;;;;;1.70;1.00;;;10.50;99.90;;;;;;5054821;28;20040;-70
2022/12/20 10:23:54;;;;;;;2.40;1.20;;;10.40;99.90;;;;;;5054741;28;20275;-70
2022/12/20 10:26:21;;;;;;;;;;;10.40;99.90;;;;;;5028241;28;20048;-71
2022/12/20 10:28:46;;;;;;;6.03;1.40;;;10.40;99.90;;;;;;5054362;28;19917;-70
2022/12/20 10:31:14;;;;;;;4.07;1.70;;;10.40;99.90;;;;;;5054350;28;20095;-70
2022/12/20 10:33:41;;;;;;;3.05;1.35;;;10.30;99.90;;;;;;5036424;28;20080;-70
2022/12/20 10:36:32;;;;;;;1.60;1.05;;;10.30;99.90;;;;;;5036747;28;20083;-71
2022/12/20 10:38:59;;;;;;;;;;;10.30;99.90;;;;;;5036690;28;20457;-70
2022/12/20 10:41:43;;;;;;;2.85;1.58;;;10.30;99.90;;;;;;5036242;28;19917;-70
2022/12/20 10:44:18;;;;;;;2.53;1.80;;;10.30;99.90;;;;;;5054014;28;20045;-70
2022/12/20 10:46:47;;;;;;;2.35;1.38;;;10.20;99.90;;;;;;5054258;28;20120;-71
2022/12/20 10:49:26;;;;;;;2.55;1.27;;;10.20;99.90;;;;;;5036094;28;20075;-70
2022/12/20 10:51:54;;;;;;;2.03;1.10;;;10.00;99.90;;;;;;5054255;28;20493;-70
2022/12/20 10:54:45;;;;;;;3.00;1.67;;;10.20;99.90;;;;;;5036391;28;20459;-71
2022/12/20 10:57:19;;;;;;;2.42;1.25;;;10.20;99.90;;;;;;5026948;28;20065;-70
2022/12/20 10:59:53;;;;;;;2.67;1.25;;;10.20;99.90;;;;;;5053622;28;20045;-71
2022/12/20 11:02:39;;;;;;;2.95;1.75;;;10.20;99.90;;;;;;5054103;28;20037;-70
2022/12/20 11:05:08;;;;;;;2.72;1.35;;;10.30;99.90;;;;;;5032218;28;20138;-70
2022/12/20 11:07:34;;;;;;;3.38;1.48;;;10.20;99.90;;;;;;5033637;28;20512;-71
2022/12/20 11:10:15;;;;;;;4.60;1.77;;;10.30;99.90;;;;;;5034048;28;20091;-70
2022/12/20 11:12:55;;;;;;;2.20;1.35;;;10.30;99.90;;;;;;5032485;28;20128;-70
2022/12/20 11:15:25;;;;;;;3.00;1.73;;;10.30;99.90;;;;;;5032333;28;20129;-71
2022/12/20 11:18:01;;;;;;;3.65;1.98;;;10.30;99.90;;;;;;5033893;28;20049;-70
2022/12/20 11:20:41;;;;;;;5.72;1.90;;;10.30;99.90;;;;;;5033600;28;20045;-71
2022/12/20 11:23:14;;;;;;;2.15;1.35;;;10.30;99.90;;;;;;5033772;28;20385;-70
2022/12/20 11:26:00;;;;;;;2.47;1.38;;;10.30;99.90;;;;;;5032243;28;20052;-70
2022/12/20 11:29:06;;;;;;;5.28;1.35;;;10.30;99.90;;;;;;5032133;28;20048;-70
2022/12/20 11:31:46;;;;;;;3.97;1.40;;;10.40;99.90;;;;;;5033723;28;20056;-70
2022/12/20 11:34:20;;;;;;;3.05;1.67;;;10.40;99.90;;;;;;5032362;28;20616;-70
2022/12/20 11:37:18;;;;;;;2.60;1.60;;;10.40;99.90;;;;;;5033559;28;20441;-71
2022/12/20 11:40:04;;;;;;;2.50;1.65;;;10.40;99.90;;;;;;5033377;28;20068;-70
2022/12/20 11:42:35;;;;;;;2.90;1.40;;;10.40;99.90;;;;;;5033412;28;20112;-70
2022/12/20 11:45:21;;;;;;;3.67;1.30;;;10.40;99.90;;;;;;5033438;28;20546;-70
2022/12/20 11:47:56;;;;;;;2.08;1.20;;;10.40;99.90;;;;;;5033414;28;20100;-70
2022/12/20 11:50:43;;;;;;;7.25;1.75;;;10.40;99.90;;;;;;5032035;28;20469;-72
2022/12/20 11:53:33;;;;;;;3.50;1.60;;;10.40;99.90;;;;;;5033319;28;20400;-70
2022/12/20 11:56:28;;;;;;;2.10;1.38;;;10.40;99.90;;;;;;5032969;28;20041;-70
2022/12/20 11:59:09;;;;;;;2.28;1.25;;;10.40;99.90;;;;;;5002382;28;20069;-70
2022/12/20 12:01:40;;;;;;;4.90;1.65;;;10.40;99.90;;;;;;5031922;28;20042;-70
2022/12/20 12:04:13;;;;;;;1.50;1.25;;;10.40;99.90;;;;;;5031977;28;20045;-70
2022/12/20 12:06:44;;;;;;;2.33;1.48;;;10.40;99.90;;;;;;5031476;28;20089;-70
2022/12/20 12:09:23;;;;;;;2.88;1.30;;;10.40;99.90;;;;;;5031685;28;20045;-70
2022/12/20 12:12:09;;;;;;;1.30;1.10;;;10.40;99.90;;;;;;5031601;28;20041;-70
2022/12/20 12:14:58;;;;;;;2.22;1.40;;;10.40;99.90;;;;;;5033036;28;20041;-70
2022/12/20 12:17:33;;;;;;;2.00;1.13;;;10.40;99.90;;;;;;5022777;28;20057;-71
2022/12/20 12:20:20;;;;;;;2.63;1.30;;;10.40;99.90;;;;;;5037154;28;20104;-70
2022/12/20 12:22:48;;;;;;;1.02;0.85;;;10.40;99.90;;;;;;5035614;28;20435;-70
2022/12/20 12:25:17;;;;;;;2.15;1.33;;;10.40;99.90;;;;;;5035537;28;20049;-71
2022/12/20 12:27:44;;;;;;;1.60;1.20;;;10.40;99.90;;;;;;5037032;28;20345;-71
2022/12/20 12:30:14;;;;;;;1.80;1.30;;;10.40;99.90;;;;;;5035843;28;20066;-70
2022/12/20 12:32:51;;;;;;;4.57;1.30;;;10.30;99.90;;;;;;5037001;28;20038;-71
2022/12/20 12:35:53;;;;;;;4.00;1.77;;;10.40;99.90;;;;;;5036904;28;20112;-70
2022/12/20 12:38:38;;;;;;;3.63;1.30;;;10.40;99.90;;;;;;5035216;28;20107;-70
2022/12/20 12:41:27;;;;;;;2.33;1.75;;;10.30;99.90;;;;;;5036484;28;20071;-71
2022/12/20 12:43:56;;;;;;;1.75;1.40;;;10.30;99.90;;;;;;5036732;28;20037;-71
2022/12/20 12:46:31;;;;;;;1.73;1.35;;;10.30;99.90;;;;;;5036659;28;20042;-70
2022/12/20 12:49:20;;;;;;;2.10;1.15;;;10.30;99.90;;;;;;5036312;28;20045;-71
2022/12/20 12:52:04;;;;;;;1.60;1.20;;;10.30;99.90;;;;;;5035079;28;20049;-71
2022/12/20 12:54:39;;;;;;;3.08;1.50;;;10.30;99.90;;;;;;5035329;28;20081;-70
2022/12/20 12:57:18;;;;;;;1.70;1.23;;;10.30;99.90;;;;;;5034955;28;20116;-71
2022/12/20 12:59:46;;;;;;;2.25;1.50;;;10.30;99.90;;;;;;5034751;28;20083;-70
2022/12/20 13:02:12;;;;;;;2.75;1.95;;;10.30;99.90;;;;;;5036465;28;20033;-70
2022/12/20 13:05:19;;;;;;;2.53;1.63;;;10.30;99.90;;;;;;5038183;28;20576;-70
2022/12/20 13:07:45;;;;;;;1.30;1.20;;;10.20;99.90;;;;;;5021484;28;20076;-70
2022/12/20 13:10:13;;;;;;;2.10;1.60;;;10.20;99.90;;;;;;5056187;28;20075;-70
2022/12/20 13:12:39;;;;;;;2.47;2.17;;;10.20;99.90;;;;;;5037998;28;20115;-70
2022/12/20 13:15:20;;;;;;;3.08;1.60;;;10.30;99.90;;;;;;5037877;28;20076;-73